createdAt,value
2022-10-22T00:00:53.042Z,33.50
2022-10-22T00:03:42.864Z,31.40
2022-10-22T00:06:18.373Z,33.00
2022-10-22T00:08:53.972Z,36.90
2022-10-22T00:11:29.454Z,36.50
2022-10-22T00:14:05.492Z,34.00
2022-10-22T00:16:41.101Z,38.00
2022-10-22T00:19:16.686Z,32.90
2022-10-22T00:21:52.137Z,34.40
2022-10-22T00:24:27.586Z,38.20
2022-10-22T00:27:03.380Z,36.10
2022-10-22T00:29:39.836Z,36.10
2022-10-22T00:32:15.399Z,38.60
2022-10-22T00:34:50.820Z,32.60
2022-10-22T00:37:26.281Z,38.60
2022-10-22T00:40:01.687Z,38.50
2022-10-22T00:42:37.594Z,37.70
2022-10-22T00:45:18.299Z,37.60
2022-10-22T00:47:56.577Z,39.90
2022-10-22T00:50:34.403Z,42.30
2022-10-22T00:53:11.724Z,33.80
2022-10-22T00:55:48.540Z,42.20
2022-10-22T00:58:25.766Z,37.50
2022-10-22T01:01:01.370Z,36.20
2022-10-22T01:03:36.935Z,33.90
2022-10-22T01:06:15.346Z,34.00
2022-10-22T01:08:55.655Z,37.00
2022-10-22T01:11:36.169Z,34.20
2022-10-22T01:14:16.763Z,36.90
2022-10-22T01:16:56.056Z,37.10
2022-10-22T01:19:37.503Z,30.60
2022-10-22T01:22:17.768Z,37.80
2022-10-22T01:24:58.079Z,31.30
2022-10-22T01:27:37.949Z,35.70
2022-10-22T01:30:14.319Z,30.10
2022-10-22T01:32:51.354Z,36.30
2022-10-22T01:35:29.105Z,36.90
2022-10-22T01:38:07.544Z,36.20
2022-10-22T01:40:44.029Z,30.20
2022-10-22T01:43:19.749Z,29.40
2022-10-22T01:45:57.608Z,36.10
2022-10-22T01:48:36.899Z,28.50
2022-10-22T01:51:19.964Z,32.20
2022-10-22T01:54:01.600Z,26.60
2022-10-22T01:56:45.905Z,30.00
2022-10-22T01:59:27.889Z,27.50
2022-10-22T02:02:05.976Z,28.40
2022-10-22T02:04:44.563Z,27.20
2022-10-22T02:07:22.407Z,32.00
2022-10-22T02:09:58.645Z,42.60
2022-10-22T02:12:35.106Z,24.90
2022-10-22T02:15:12.079Z,26.40
2022-10-22T02:17:48.168Z,30.00
2022-10-22T02:20:26.058Z,25.90
2022-10-22T02:23:01.705Z,26.10
2022-10-22T02:25:37.968Z,28.90
2022-10-22T02:28:15.147Z,27.10
2022-10-22T02:30:54.041Z,28.20
2022-10-22T02:33:31.253Z,32.10
2022-10-22T02:36:08.236Z,30.10
2022-10-22T02:38:44.074Z,28.50
2022-10-22T02:41:19.817Z,33.10
2022-10-22T02:43:56.746Z,29.60
2022-10-22T02:46:32.264Z,27.60
2022-10-22T02:49:08.116Z,28.50
2022-10-22T02:51:43.756Z,27.10
2022-10-22T02:54:19.214Z,31.30
2022-10-22T02:56:54.603Z,31.30
2022-10-22T02:59:30.414Z,29.20
2022-10-22T03:02:05.840Z,30.20
2022-10-22T03:04:41.294Z,31.40
2022-10-22T03:07:18.137Z,32.10
2022-10-22T03:09:53.638Z,39.70
2022-10-22T03:12:29.012Z,35.40
2022-10-22T03:15:04.862Z,32.30
2022-10-22T03:17:40.613Z,29.70
2022-10-22T03:20:16.326Z,31.30
2022-10-22T03:22:51.827Z,30.10
2022-10-22T03:25:28.196Z,30.40
2022-10-22T03:28:06.202Z,36.00
2022-10-22T03:30:41.728Z,30.10
2022-10-22T03:33:17.154Z,32.70
2022-10-22T03:35:52.627Z,30.60
2022-10-22T03:38:28.213Z,32.00
2022-10-22T03:41:04.029Z,33.60
2022-10-22T03:43:40.930Z,38.00
2022-10-22T03:46:16.382Z,36.60
2022-10-22T03:48:51.898Z,38.70
2022-10-22T03:51:29.211Z,33.70
2022-10-22T03:54:04.693Z,42.90
2022-10-22T03:56:40.110Z,38.00
2022-10-22T03:59:15.603Z,38.10
2022-10-22T04:01:51.112Z,40.10
2022-10-22T04:04:26.510Z,37.40
2022-10-22T04:07:01.970Z,37.80
2022-10-22T04:09:37.449Z,35.60
2022-10-22T04:12:12.992Z,40.80
2022-10-22T04:14:48.704Z,44.70
2022-10-22T04:17:24.178Z,43.30
2022-10-22T04:19:59.616Z,45.40
2022-10-22T04:22:36.214Z,42.40
2022-10-22T04:25:12.116Z,39.30
2022-10-22T04:27:47.587Z,41.70
2022-10-22T04:30:23.048Z,39.20
2022-10-22T04:32:58.528Z,40.10
2022-10-22T04:35:33.985Z,43.30
2022-10-22T04:38:09.427Z,52.50
2022-10-22T04:40:44.995Z,44.00
2022-10-22T04:43:20.450Z,39.50
2022-10-22T04:48:31.215Z,36.20
2022-10-22T04:51:07.361Z,37.40
2022-10-22T04:53:42.805Z,41.90
2022-10-22T04:56:20.815Z,45.80
2022-10-22T04:58:57.297Z,42.40
2022-10-22T05:01:36.938Z,41.00
2022-10-22T05:04:16.668Z,36.70
2022-10-22T05:06:52.829Z,36.20
2022-10-22T05:09:28.302Z,35.90
2022-10-22T05:12:03.726Z,47.80
2022-10-22T05:14:42.645Z,34.30
2022-10-22T05:17:20.190Z,37.30
2022-10-22T05:19:55.608Z,39.00
2022-10-22T05:22:31.127Z,47.20
2022-10-22T05:25:07.231Z,39.30
2022-10-22T05:27:42.858Z,40.10
2022-10-22T05:30:18.545Z,37.20
2022-10-22T05:32:54.068Z,39.20
2022-10-22T05:35:29.573Z,40.90
2022-10-22T05:38:05.029Z,38.10
2022-10-22T05:40:40.722Z,40.50
2022-10-22T05:43:16.230Z,42.30
2022-10-22T05:45:51.725Z,39.90
2022-10-22T05:48:27.237Z,43.70
2022-10-22T05:51:05.687Z,39.90
2022-10-22T05:53:42.008Z,43.40
2022-10-22T05:56:17.755Z,41.00
2022-10-22T05:58:53.344Z,37.30
2022-10-22T06:01:30.369Z,43.30
2022-10-22T06:04:07.937Z,44.10
2022-10-22T06:06:45.517Z,44.60
2022-10-22T06:09:23.874Z,38.80
2022-10-22T06:12:00.683Z,43.40
2022-10-22T06:14:36.722Z,38.40
2022-10-22T06:17:13.082Z,43.70
2022-10-22T06:19:48.756Z,47.00
2022-10-22T06:22:24.218Z,42.00
2022-10-22T06:24:59.834Z,35.90
2022-10-22T06:27:39.166Z,34.00
2022-10-22T06:30:15.257Z,45.60
2022-10-22T06:32:50.658Z,47.50
2022-10-22T06:35:26.381Z,46.00
2022-10-22T06:38:02.348Z,46.50
2022-10-22T06:40:38.870Z,40.10
2022-10-22T06:43:15.843Z,34.50
2022-10-22T06:45:51.378Z,39.00
2022-10-22T06:48:26.985Z,45.70
2022-10-22T06:51:04.206Z,36.20
2022-10-22T06:53:40.837Z,38.20
2022-10-22T06:56:17.496Z,37.50
2022-10-22T06:58:54.382Z,44.30
2022-10-22T07:01:33.063Z,41.70
2022-10-22T07:04:10.112Z,39.40
2022-10-22T07:06:45.906Z,37.80
2022-10-22T07:09:21.482Z,40.30
2022-10-22T07:11:57.359Z,35.90
2022-10-22T07:14:33.079Z,38.00
2022-10-22T07:17:08.954Z,39.20
2022-10-22T07:19:47.157Z,34.30
2022-10-22T07:25:01.608Z,33.30
2022-10-22T07:27:39.906Z,33.60
2022-10-22T07:30:17.463Z,34.60
2022-10-22T07:32:53.395Z,34.40
2022-10-22T07:35:28.942Z,31.20
2022-10-22T07:38:04.886Z,33.10
2022-10-22T07:40:40.665Z,38.40
2022-10-22T07:43:16.378Z,29.70
2022-10-22T07:45:52.397Z,36.90
2022-10-22T07:48:28.210Z,39.20
2022-10-22T07:51:04.642Z,37.40
2022-10-22T07:53:40.674Z,45.80
2022-10-22T07:56:16.513Z,45.10
2022-10-22T07:58:52.761Z,40.30
2022-10-22T08:01:28.794Z,42.30
2022-10-22T08:04:04.339Z,39.80
2022-10-22T08:06:44.535Z,46.70
2022-10-22T08:09:23.177Z,42.00
2022-10-22T08:12:02.993Z,43.80
2022-10-22T08:14:39.359Z,41.70
2022-10-22T08:17:15.340Z,46.70
2022-10-22T08:19:50.958Z,41.90
2022-10-22T08:22:27.374Z,43.80
2022-10-22T08:25:03.646Z,41.10
2022-10-22T08:27:39.694Z,46.60
2022-10-22T08:30:16.214Z,43.00
2022-10-22T08:32:54.143Z,49.90
2022-10-22T08:35:30.339Z,58.20
2022-10-22T08:38:06.729Z,50.60
2022-10-22T08:40:42.557Z,48.80
2022-10-22T08:43:26.095Z,43.70
2022-10-22T08:46:06.934Z,49.90
2022-10-22T08:48:45.990Z,49.30
2022-10-22T08:51:22.818Z,44.00
2022-10-22T08:54:08.258Z,42.40
2022-10-22T08:56:46.601Z,37.40
2022-10-22T08:59:24.442Z,34.20
2022-10-22T09:02:00.720Z,38.20
2022-10-22T09:04:41.779Z,38.60
2022-10-22T09:07:17.410Z,27.30
2022-10-22T09:09:55.783Z,34.60
2022-10-22T09:12:31.236Z,30.00
2022-10-22T09:15:07.314Z,34.20
2022-10-22T09:17:47.678Z,34.90
2022-10-22T09:20:26.421Z,34.60
2022-10-22T09:23:06.776Z,40.20
2022-10-22T09:25:43.455Z,40.80
2022-10-22T09:28:19.038Z,45.20
2022-10-22T09:30:54.595Z,53.00
2022-10-22T09:33:33.051Z,44.30
2022-10-22T09:36:09.214Z,50.90
2022-10-22T09:38:48.477Z,55.00
2022-10-22T09:41:25.067Z,44.90
2022-10-22T09:44:00.679Z,44.40
2022-10-22T09:46:44.082Z,44.70
2022-10-22T09:49:21.075Z,36.20
2022-10-22T09:51:57.405Z,36.00
2022-10-22T09:54:41.512Z,34.30
2022-10-22T09:57:19.119Z,32.80
2022-10-22T09:59:57.607Z,36.10
2022-10-22T10:02:38.576Z,35.30
2022-10-22T10:05:20.955Z,36.30
2022-10-22T10:07:57.091Z,33.20
2022-10-22T10:10:36.444Z,37.40
2022-10-22T10:13:19.910Z,31.00
2022-10-22T10:15:57.700Z,34.00
2022-10-22T10:18:41.454Z,30.10
2022-10-22T10:21:22.319Z,31.20
2022-10-22T10:24:03.003Z,33.20
2022-10-22T10:26:41.077Z,39.70
2022-10-22T10:29:25.711Z,38.50
2022-10-22T10:32:07.914Z,29.70
2022-10-22T10:34:47.585Z,37.50
2022-10-22T10:37:24.822Z,35.10
2022-10-22T10:40:06.393Z,45.30
2022-10-22T10:42:44.539Z,43.90
2022-10-22T10:45:25.124Z,44.60
2022-10-22T10:48:17.219Z,41.60
2022-10-22T10:51:01.302Z,34.50
2022-10-22T10:53:46.794Z,34.00
2022-10-22T10:56:28.953Z,36.70
2022-10-22T10:59:09.629Z,31.00
2022-10-22T11:01:49.862Z,34.60
2022-10-22T11:04:39.016Z,36.90
2022-10-22T11:07:33.443Z,36.50
2022-10-22T11:10:13.611Z,32.50
2022-10-22T11:12:51.597Z,37.90
2022-10-22T11:15:29.541Z,39.40
2022-10-22T11:18:08.041Z,38.00
2022-10-22T11:20:49.617Z,44.90
2022-10-22T11:23:29.599Z,41.30
2022-10-22T11:26:05.534Z,38.90
2022-10-22T11:28:42.581Z,34.80
2022-10-22T11:31:18.636Z,37.90
2022-10-22T11:34:04.905Z,35.10
2022-10-22T11:36:51.691Z,45.70
2022-10-22T11:39:33.475Z,46.50
2022-10-22T11:42:11.829Z,49.20
2022-10-22T11:45:00.037Z,39.80
2022-10-22T11:47:36.364Z,38.30
2022-10-22T11:50:22.985Z,51.10
2022-10-22T11:53:04.036Z,52.70
2022-10-22T11:55:49.297Z,30.30
2022-10-22T11:58:35.810Z,32.20
2022-10-22T12:04:18.849Z,29.80
2022-10-22T12:07:02.128Z,34.20
2022-10-22T12:09:41.808Z,35.50
2022-10-22T12:12:17.350Z,33.40
2022-10-22T12:14:57.950Z,26.90
2022-10-22T12:17:33.704Z,26.40
2022-10-22T12:20:13.728Z,27.90
2022-10-22T12:22:49.452Z,22.10
2022-10-22T12:25:25.881Z,26.10
2022-10-22T12:28:01.590Z,24.30
2022-10-22T12:30:38.027Z,18.80
2022-10-22T12:33:21.354Z,20.00
2022-10-22T12:35:58.220Z,22.70
2022-10-22T12:38:34.354Z,21.10
2022-10-22T12:41:12.366Z,19.40
2022-10-22T12:43:51.568Z,16.90
2022-10-22T12:46:28.613Z,10.30
2022-10-22T12:49:05.762Z,11.90
2022-10-22T12:51:41.360Z,9.90
2022-10-22T12:54:22.910Z,9.80
2022-10-22T12:57:00.583Z,9.20
2022-10-22T12:59:38.198Z,7.00
2022-10-22T13:02:22.726Z,9.40
2022-10-22T13:05:22.493Z,8.40
2022-10-22T13:08:04.268Z,8.00
2022-10-22T13:10:40.838Z,9.00
2022-10-22T13:16:16.830Z,8.60
2022-10-22T13:18:52.467Z,10.20
2022-10-22T13:21:31.097Z,6.80
2022-10-22T13:24:20.887Z,8.40
2022-10-22T13:26:58.837Z,10.90
2022-10-22T13:29:34.355Z,7.40
2022-10-22T13:32:23.518Z,9.20
2022-10-22T13:35:00.607Z,12.50
2022-10-22T13:37:38.213Z,8.10
2022-10-22T13:40:15.334Z,10.00
2022-10-22T13:42:50.519Z,11.00
2022-10-22T13:45:25.891Z,9.30
2022-10-22T13:48:01.034Z,8.50
2022-10-22T13:50:36.240Z,11.20
2022-10-22T13:53:18.917Z,10.00
2022-10-22T13:55:54.519Z,13.40
2022-10-22T13:58:29.903Z,16.60
2022-10-22T14:01:09.422Z,13.60
2022-10-22T14:03:45.286Z,12.10
2022-10-22T14:06:21.177Z,13.60
2022-10-22T14:08:58.499Z,14.30
2022-10-22T14:11:35.274Z,16.50
2022-10-22T14:14:14.422Z,19.30
2022-10-22T14:16:49.979Z,21.50
2022-10-22T14:19:25.412Z,18.30
2022-10-22T14:22:00.764Z,24.20
2022-10-22T14:24:35.959Z,19.20
2022-10-22T14:27:12.263Z,22.70
2022-10-22T14:29:47.386Z,22.50
2022-10-22T14:32:22.553Z,22.60
2022-10-22T14:34:59.606Z,23.70
2022-10-22T14:37:34.788Z,27.10
2022-10-22T14:40:12.514Z,31.90
2022-10-22T14:42:48.382Z,26.80
2022-10-22T14:45:24.474Z,25.40
2022-10-22T14:48:00.123Z,26.70
2022-10-22T14:50:35.465Z,26.60
2022-10-22T14:53:10.577Z,30.60
2022-10-22T14:55:47.502Z,28.10
2022-10-22T14:58:22.890Z,24.50
2022-10-22T15:00:58.575Z,28.10
2022-10-22T15:03:33.737Z,22.30
2022-10-22T15:06:09.084Z,23.00
2022-10-22T15:08:45.675Z,24.50
2022-10-22T15:11:22.223Z,23.80
2022-10-22T15:14:00.143Z,31.50
2022-10-22T15:16:35.475Z,28.20
2022-10-22T15:19:11.205Z,23.50
2022-10-22T15:21:46.375Z,26.50
2022-10-22T15:24:21.558Z,29.20
2022-10-22T15:26:57.538Z,28.00
2022-10-22T15:29:33.520Z,29.30
2022-10-22T15:32:10.488Z,27.70
2022-10-22T15:34:45.741Z,26.70
2022-10-22T15:37:21.058Z,26.60
2022-10-22T15:39:56.236Z,31.10
2022-10-22T15:42:31.513Z,31.10
2022-10-22T15:45:09.018Z,28.90
2022-10-22T15:47:47.622Z,28.80
2022-10-22T15:50:23.554Z,33.60
2022-10-22T15:52:59.058Z,35.60
2022-10-22T15:55:34.320Z,28.90
2022-10-22T15:58:09.820Z,28.90
2022-10-22T16:00:45.032Z,29.60
2022-10-22T16:03:20.426Z,33.30
2022-10-22T16:05:57.251Z,31.10
2022-10-22T16:08:32.604Z,33.60
2022-10-22T16:11:08.042Z,31.00
2022-10-22T16:13:43.151Z,36.00
2022-10-22T16:16:18.243Z,30.90
2022-10-22T16:18:54.027Z,35.50
2022-10-22T16:21:29.487Z,37.30
2022-10-22T16:24:06.349Z,46.50
2022-10-22T16:26:41.842Z,45.70
2022-10-22T16:29:17.372Z,33.40
2022-10-22T16:31:52.507Z,35.40
2022-10-22T16:34:28.798Z,34.40
2022-10-22T16:37:10.073Z,34.00
2022-10-22T16:39:55.018Z,36.30
2022-10-22T16:42:30.619Z,34.40
2022-10-22T16:45:06.384Z,34.40
2022-10-22T16:47:43.123Z,33.30
2022-10-22T16:50:18.589Z,32.50
2022-10-22T16:52:53.747Z,29.20
2022-10-22T16:55:29.203Z,36.10
2022-10-22T16:58:04.397Z,34.60
2022-10-22T17:00:39.541Z,32.10
2022-10-22T17:03:17.275Z,33.90
2022-10-22T17:05:52.456Z,32.80
2022-10-22T17:08:27.574Z,30.90
2022-10-22T17:11:06.235Z,41.80
2022-10-22T17:13:42.520Z,36.30
2022-10-22T17:16:18.970Z,35.40
2022-10-22T17:18:54.630Z,36.00
2022-10-22T17:21:29.988Z,35.60
2022-10-22T17:24:05.431Z,34.60
2022-10-22T17:26:40.775Z,36.40
2022-10-22T17:29:16.854Z,34.20
2022-10-22T17:31:52.687Z,33.80
2022-10-22T17:34:30.620Z,30.90
2022-10-22T17:37:05.994Z,37.90
2022-10-22T17:39:41.424Z,33.70
2022-10-22T17:42:16.710Z,36.70
2022-10-22T17:44:52.137Z,38.90
2022-10-22T17:47:27.414Z,31.50
2022-10-22T17:50:02.574Z,34.50
2022-10-22T17:52:37.721Z,37.00
2022-10-22T17:55:13.234Z,37.40
2022-10-22T17:57:48.416Z,33.10
2022-10-22T18:00:23.689Z,35.40
2022-10-22T18:02:59.442Z,37.30
2022-10-22T18:05:34.769Z,34.10
2022-10-22T18:08:09.920Z,37.00
2022-10-22T18:10:45.223Z,34.40
2022-10-22T18:13:21.005Z,34.30
2022-10-22T18:15:59.067Z,38.70
2022-10-22T18:18:36.934Z,33.50
2022-10-22T18:21:12.059Z,35.10
2022-10-22T18:23:47.640Z,33.70
2022-10-22T18:26:25.985Z,35.40
2022-10-22T18:29:02.358Z,32.60
2022-10-22T18:31:37.464Z,35.80
2022-10-22T18:34:12.788Z,32.80
2022-10-22T18:36:48.008Z,37.30
2022-10-22T18:39:23.179Z,35.30
2022-10-22T18:41:58.318Z,38.10
2022-10-22T18:44:34.504Z,39.70
2022-10-22T18:47:09.702Z,42.70
2022-10-22T18:49:44.895Z,38.70
2022-10-22T18:52:19.983Z,46.70
2022-10-22T18:54:55.118Z,48.10
2022-10-22T18:57:30.184Z,54.40
2022-10-22T19:00:05.903Z,46.70
2022-10-22T19:02:41.366Z,50.10
2022-10-22T19:05:16.713Z,52.00
2022-10-22T19:07:51.985Z,49.60
2022-10-22T19:16:24.153Z,45.60
2022-10-22T19:19:02.359Z,45.40
2022-10-22T19:21:37.649Z,46.50
2022-10-22T19:24:13.135Z,49.20
2022-10-22T19:26:48.807Z,45.10
2022-10-22T19:29:24.304Z,40.70
2022-10-22T19:31:59.742Z,48.90
2022-10-22T19:34:35.039Z,58.50
2022-10-22T19:37:10.229Z,47.40
2022-10-22T19:39:45.482Z,47.40
2022-10-22T19:42:21.515Z,47.40
2022-10-22T19:44:56.723Z,46.20
2022-10-22T19:47:32.014Z,45.00
2022-10-22T19:50:07.763Z,41.90
2022-10-22T19:52:43.341Z,44.50
2022-10-22T19:55:18.986Z,47.20
2022-10-22T19:57:54.319Z,45.60
2022-10-22T20:00:29.701Z,42.00
2022-10-22T20:03:05.198Z,48.30
2022-10-22T20:05:41.278Z,46.50
2022-10-22T20:08:16.628Z,38.90
2022-10-22T20:10:51.975Z,43.40
2022-10-22T20:13:27.386Z,46.90
2022-10-22T20:16:02.778Z,43.90
2022-10-22T20:18:39.086Z,41.80
2022-10-22T20:21:15.973Z,46.10
2022-10-22T20:23:52.888Z,46.70
2022-10-22T20:26:29.085Z,40.30
2022-10-22T20:29:04.391Z,40.10
2022-10-22T20:31:39.586Z,37.50
2022-10-22T20:34:14.971Z,46.20
2022-10-22T20:36:50.322Z,46.10
2022-10-22T20:39:25.499Z,42.20
2022-10-22T20:42:00.768Z,40.00
2022-10-22T20:44:35.969Z,40.20
2022-10-22T20:47:13.473Z,48.10
2022-10-22T20:49:48.839Z,41.20
2022-10-22T20:52:24.118Z,46.90
2022-10-22T20:54:59.384Z,51.00
2022-10-22T20:57:34.583Z,42.20
2022-10-22T21:00:10.883Z,40.10
2022-10-22T21:02:46.337Z,42.90
2022-10-22T21:05:22.066Z,41.50
2022-10-22T21:07:58.519Z,46.10
2022-10-22T21:10:34.367Z,47.80
2022-10-22T21:13:10.756Z,49.70
2022-10-22T21:15:46.400Z,42.00
2022-10-22T21:18:21.764Z,41.70
2022-10-22T21:20:56.993Z,42.70
2022-10-22T21:23:32.313Z,45.00
2022-10-22T21:26:07.652Z,42.80
2022-10-22T21:28:42.893Z,48.40
2022-10-22T21:31:22.192Z,37.90
2022-10-22T21:33:57.752Z,46.70
2022-10-22T21:36:33.175Z,43.80
2022-10-22T21:39:08.560Z,51.10
2022-10-22T21:41:43.861Z,53.30
2022-10-22T21:44:19.276Z,54.60
2022-10-22T21:46:54.535Z,48.00
2022-10-22T21:49:29.713Z,45.50
2022-10-22T21:52:07.080Z,45.60
2022-10-22T21:54:42.425Z,46.10
2022-10-22T21:57:17.741Z,43.70
2022-10-22T21:59:52.962Z,45.30
2022-10-22T22:02:28.899Z,42.50
2022-10-22T22:05:04.246Z,41.00
2022-10-22T22:07:40.357Z,39.40
2022-10-22T22:10:15.659Z,37.50
2022-10-22T22:12:51.803Z,41.70
2022-10-22T22:15:27.087Z,41.40
2022-10-22T22:18:02.802Z,34.70
2022-10-22T22:20:39.157Z,38.00
2022-10-22T22:23:14.503Z,37.40
2022-10-22T22:25:49.881Z,36.60
2022-10-22T22:28:25.256Z,38.80
2022-10-22T22:31:00.783Z,36.30
2022-10-22T22:33:36.058Z,36.20
2022-10-22T22:36:11.783Z,33.70
2022-10-22T22:38:47.215Z,32.60
2022-10-22T22:41:22.678Z,36.60
2022-10-22T22:43:57.993Z,34.40
2022-10-22T22:46:33.559Z,34.70
2022-10-22T22:49:09.288Z,33.20
2022-10-22T22:51:45.088Z,31.70
2022-10-22T22:54:20.311Z,36.10
2022-10-22T22:56:55.606Z,39.30
2022-10-22T22:59:30.851Z,36.70
2022-10-22T23:02:06.171Z,35.90
2022-10-22T23:04:41.546Z,33.70
2022-10-22T23:07:16.841Z,34.70
2022-10-22T23:09:52.360Z,32.80
2022-10-22T23:12:29.026Z,35.40
2022-10-22T23:15:04.501Z,36.00
2022-10-22T23:17:39.757Z,35.90
2022-10-22T23:20:14.995Z,32.40
2022-10-22T23:22:50.301Z,38.10
2022-10-22T23:25:25.667Z,34.50
2022-10-22T23:28:00.881Z,46.00
2022-10-22T23:30:36.117Z,36.00
2022-10-22T23:33:11.337Z,38.70
2022-10-22T23:35:46.850Z,37.60
2022-10-22T23:38:22.154Z,39.10
2022-10-22T23:40:57.906Z,37.80
2022-10-22T23:43:36.065Z,36.90
2022-10-22T23:46:12.775Z,34.20
2022-10-22T23:48:48.070Z,46.00
2022-10-22T23:51:23.504Z,40.60
2022-10-22T23:53:59.475Z,41.90
2022-10-22T23:56:35.630Z,52.00
2022-10-22T23:59:11.090Z,52.60
